Details for Norwegian Air Shuttle at KJFK




Go Back


Latest METAR
Local Time

KJFK 212251Z 18006KT 10SM FEW050 BKN250 24/17 A2978 RMK AO2 SLP083 T02440172

21/06/2018, 19:32:19

Description
Results
Norwegian Air Shuttle Logo
Number of Pilots based at KJFK
0 Pilots Based here
Number of Norwegian Air Shuttle Flights Departed from KJFK
0 Flights Departed
Number of Norwegian Air Shuttle Flights Arrived at KJFK
0 Flights Arrived
Number of Norwegian Air Shuttle Schedules Departing from KJFK
9 Schedules
Number of Norwegian Air Shuttle Schedules Arriving at KJFK
11 Schedules
Number of Norwegian Air Shuttle Schedules Departing from KJFK availible today
3 Schedules Today
Number of Norwegian Air Shuttle Schedules Arriving at KJFK availible today
4 Schedules Today
Average Landing Rate at KJFK
-223 fpm
Norwegian Air Shuttle Average Landing Rate at KJFK
0 fpm
Total Fuel Purchased at KJFK by Norwegian Air Shuttle
0.00 kgs / 0.00 lbs

Pilots Based at KJFK


Pilot ID
Pilot Name
Pilot Rank
No. of Flights
No. of Flying Hours
There are no pilots assigned to this hub!   Will you be the first?
Content